ENKJ weather

Kjeller Airport
Kjeller, Akershus, Norway

Public forecast

Using degrees Celsius for public forecast. Weather courtesy of forecast.io.

Closest aviation weather report (METAR) to Kjeller Airport

Closest report is Oslo, Fornebu Airport, 13.4 nm (24.7 km) WSW. Retrieved 2019/11/17 08:20 UTC (25 minutes ago):

ENFB 170820Z AUTO VRB01KT 9999NDV OVC085/// 07/01 Q1011 W///S/

Closest aviation forecast (TAF) to Kjeller Airport

Closest forecast is Oslo Gardermoen Airport, 13.6 nm (25.2 km) N. Retrieved 2019/11/17 06:57 UTC (2 hours ago):

TAF ENGM 170500Z 1706/1806 36006KT 9000 -RADZ FEW008 BKN020 TEMPO 1706/1709 4000 -RASN BKN008 BECMG 1717/1719 0300 FZFG VV001 TEMPO 1719/1806 4000 BR OVC003